createdAt,value
2023-03-28T00:02:06.831Z,1.15
2023-03-28T00:04:33.521Z,1.42
2023-03-28T00:07:00.636Z,1.33
2023-03-28T00:09:27.296Z,1.85
2023-03-28T00:11:53.947Z,1.25
2023-03-28T00:14:20.759Z,1.10
2023-03-28T00:16:47.444Z,1.42
2023-03-28T00:19:17.426Z,1.88
2023-03-28T00:21:49.011Z,1.65
2023-03-28T00:24:21.270Z,1.25
2023-03-28T00:26:54.097Z,1.73
2023-03-28T00:29:23.017Z,1.45
2023-03-28T00:31:51.482Z,1.63
2023-03-28T00:34:18.373Z,1.17
2023-03-28T00:36:45.168Z,1.60
2023-03-28T00:39:13.355Z,1.23
2023-03-28T00:41:43.500Z,1.52
2023-03-28T00:44:49.291Z,1.05
2023-03-28T00:47:30.676Z,0.85
2023-03-28T00:50:13.952Z,1.63
2023-03-28T00:52:51.036Z,1.38
2023-03-28T00:55:26.491Z,1.42
2023-03-28T00:57:54.436Z,1.20
2023-03-28T01:00:21.972Z,1.95
2023-03-28T01:02:53.000Z,1.10
2023-03-28T01:05:26.320Z,1.85
2023-03-28T01:07:58.751Z,1.92
2023-03-28T01:10:27.144Z,2.80
2023-03-28T01:12:56.003Z,1.77
2023-03-28T01:15:23.407Z,1.45
2023-03-28T01:17:57.460Z,1.80
2023-03-28T01:20:47.676Z,1.55
2023-03-28T01:23:18.273Z,0.80
2023-03-28T01:26:28.389Z,0.80
2023-03-28T01:29:09.877Z,0.98
2023-03-28T01:32:08.862Z,1.52
2023-03-28T01:35:13.611Z,1.25
2023-03-28T01:37:57.702Z,1.30
2023-03-28T01:40:45.781Z,1.23
2023-03-28T01:43:12.846Z,1.30
2023-03-28T01:46:15.855Z,1.27
2023-03-28T01:49:12.516Z,1.17
2023-03-28T01:51:57.769Z,1.13
2023-03-28T01:54:50.416Z,1.85
2023-03-28T01:57:17.246Z,1.27
2023-03-28T01:59:53.316Z,1.02
2023-03-28T02:02:34.236Z,1.15
2023-03-28T02:05:33.077Z,1.02
2023-03-28T02:08:02.795Z,1.85
2023-03-28T02:10:42.296Z,1.10
2023-03-28T02:13:29.169Z,1.10
2023-03-28T02:16:06.038Z,1.27
2023-03-28T02:19:09.359Z,1.27
2023-03-28T02:22:35.380Z,1.75
2023-03-28T02:25:31.778Z,1.52
2023-03-28T02:28:19.351Z,1.42
2023-03-28T02:31:09.507Z,1.08
2023-03-28T02:33:47.383Z,1.35
2023-03-28T02:36:41.299Z,1.13
2023-03-28T02:39:18.652Z,1.52
2023-03-28T02:42:13.671Z,1.63
2023-03-28T02:45:05.327Z,1.80
2023-03-28T02:48:05.614Z,1.35
2023-03-28T02:50:48.752Z,1.77
2023-03-28T02:53:27.280Z,1.25
2023-03-28T02:56:15.969Z,1.45
2023-03-28T02:59:28.877Z,1.52
2023-03-28T03:01:55.681Z,2.47
2023-03-28T03:04:22.383Z,2.53
2023-03-28T03:06:49.102Z,2.92
2023-03-28T03:09:17.472Z,1.17
2023-03-28T03:11:44.158Z,2.13
2023-03-28T03:14:12.053Z,1.05
2023-03-28T03:16:38.868Z,1.00
2023-03-28T03:19:07.550Z,2.10
2023-03-28T03:21:34.332Z,2.00
2023-03-28T03:24:01.130Z,2.15
2023-03-28T03:26:27.971Z,4.22
2023-03-28T03:29:00.672Z,2.15
2023-03-28T03:31:27.934Z,2.80
2023-03-28T03:34:03.577Z,1.73
2023-03-28T03:36:35.651Z,2.55
2023-03-28T03:39:06.913Z,1.65
2023-03-28T03:41:33.670Z,1.58
2023-03-28T03:44:00.788Z,1.70
2023-03-28T03:46:29.717Z,3.83
2023-03-28T03:48:56.471Z,1.90
2023-03-28T03:51:23.239Z,3.38
2023-03-28T03:53:54.044Z,3.03
2023-03-28T03:56:28.104Z,2.15
2023-03-28T03:59:00.523Z,2.08
2023-03-28T04:01:30.600Z,2.67
2023-03-28T04:04:17.589Z,2.55
2023-03-28T04:07:02.255Z,3.75
2023-03-28T04:09:28.992Z,3.10
2023-03-28T04:11:59.727Z,1.67
2023-03-28T04:14:27.412Z,2.00
2023-03-28T04:19:43.759Z,1.92
2023-03-28T04:22:12.904Z,1.63
2023-03-28T04:24:45.793Z,2.13
2023-03-28T04:27:18.414Z,2.05
2023-03-28T04:29:47.304Z,4.90
2023-03-28T04:32:41.295Z,3.83
2023-03-28T04:35:12.339Z,3.10
2023-03-28T04:37:39.021Z,3.10
2023-03-28T04:40:11.780Z,6.00
2023-03-28T04:42:46.736Z,2.05
2023-03-28T04:45:25.414Z,2.50
2023-03-28T04:47:53.628Z,4.22
2023-03-28T04:50:23.125Z,2.67
2023-03-28T04:52:49.795Z,2.53
2023-03-28T04:55:17.267Z,1.90
2023-03-28T04:57:45.932Z,1.83
2023-03-28T05:00:13.371Z,1.63
2023-03-28T05:03:02.098Z,2.25
2023-03-28T05:05:32.808Z,2.25
2023-03-28T05:07:59.632Z,1.55
2023-03-28T05:10:26.521Z,1.88
2023-03-28T05:12:58.525Z,2.70
2023-03-28T05:15:26.199Z,1.98
2023-03-28T05:18:01.946Z,2.13
2023-03-28T05:20:36.448Z,1.85
2023-03-28T05:23:06.040Z,2.20
2023-03-28T05:25:34.975Z,9.82
2023-03-28T05:28:01.939Z,15.75
2023-03-28T05:30:29.822Z,10.30
2023-03-28T05:32:58.406Z,8.20
2023-03-28T05:35:25.500Z,5.68
2023-03-28T05:37:52.556Z,6.97
2023-03-28T05:40:19.348Z,4.43
2023-03-28T05:42:46.288Z,6.75
2023-03-28T05:45:15.965Z,6.25
2023-03-28T05:47:56.235Z,5.32
2023-03-28T05:50:24.828Z,2.83
2023-03-28T05:52:56.335Z,3.10
2023-03-28T05:55:23.139Z,5.40
2023-03-28T05:57:49.854Z,4.28
2023-03-28T06:00:19.610Z,2.42
2023-03-28T06:02:46.687Z,5.53
2023-03-28T06:05:16.793Z,3.15
2023-03-28T06:07:44.250Z,4.18
2023-03-28T06:10:15.508Z,3.28
2023-03-28T06:12:51.590Z,1.83
2023-03-28T06:15:18.321Z,2.38
2023-03-28T06:17:48.723Z,3.65
2023-03-28T06:20:15.864Z,2.45
2023-03-28T06:22:42.699Z,2.10
2023-03-28T06:25:11.000Z,4.40
2023-03-28T06:27:37.960Z,2.10
2023-03-28T06:30:05.589Z,2.92
2023-03-28T06:32:39.634Z,3.25
2023-03-28T06:35:07.068Z,1.90
2023-03-28T06:37:33.782Z,1.77
2023-03-28T06:40:05.263Z,2.95
2023-03-28T06:42:32.011Z,1.52
2023-03-28T06:45:13.820Z,3.00
2023-03-28T06:47:56.118Z,2.25
2023-03-28T06:50:33.625Z,2.95
2023-03-28T06:53:10.738Z,2.22
2023-03-28T06:55:37.434Z,2.25
2023-03-28T06:58:04.184Z,3.17
2023-03-28T07:00:41.216Z,6.30
2023-03-28T07:03:30.048Z,4.80
2023-03-28T07:05:58.160Z,3.85
2023-03-28T07:08:25.442Z,3.47
2023-03-28T07:10:52.596Z,3.22
2023-03-28T07:13:19.371Z,4.22
2023-03-28T07:16:11.477Z,4.57
2023-03-28T07:18:38.550Z,12.80
2023-03-28T07:21:10.762Z,7.95
2023-03-28T07:23:41.475Z,5.45
2023-03-28T07:26:12.533Z,6.63
2023-03-28T07:28:39.394Z,2.35
2023-03-28T07:31:06.868Z,2.83
2023-03-28T07:33:38.053Z,4.85
2023-03-28T07:36:16.062Z,5.38
2023-03-28T07:38:48.400Z,4.10
2023-03-28T07:41:17.543Z,3.08
2023-03-28T07:43:44.989Z,3.20
2023-03-28T07:46:14.861Z,9.10
2023-03-28T07:48:42.987Z,4.63
2023-03-28T07:51:10.957Z,6.47
2023-03-28T07:53:39.060Z,6.38
2023-03-28T07:56:12.054Z,7.90
2023-03-28T07:58:58.102Z,4.45
2023-03-28T08:01:26.313Z,3.75
2023-03-28T08:03:59.416Z,4.40
2023-03-28T08:09:09.465Z,3.30
2023-03-28T08:11:44.805Z,3.95
2023-03-28T08:14:14.371Z,3.15
2023-03-28T08:16:41.825Z,3.20
2023-03-28T08:19:11.757Z,2.97
2023-03-28T08:22:10.045Z,4.03
2023-03-28T08:24:44.459Z,2.92
2023-03-28T08:27:14.467Z,2.22
2023-03-28T08:29:44.162Z,4.05
2023-03-28T08:32:10.992Z,3.53
2023-03-28T08:34:38.415Z,2.97
2023-03-28T08:37:11.660Z,2.95
2023-03-28T08:39:41.392Z,2.42
2023-03-28T08:42:36.026Z,2.58
2023-03-28T08:45:12.943Z,2.10
2023-03-28T08:48:04.760Z,2.10
2023-03-28T08:50:36.312Z,1.67
2023-03-28T08:53:04.782Z,1.58
2023-03-28T08:55:39.854Z,1.75
2023-03-28T08:58:12.254Z,1.73
2023-03-28T09:00:39.882Z,2.33
2023-03-28T09:03:13.345Z,2.60
2023-03-28T09:06:04.811Z,1.17
2023-03-28T09:08:44.266Z,1.73
2023-03-28T09:11:41.659Z,1.75
2023-03-28T09:14:24.001Z,1.20
2023-03-28T09:17:23.295Z,1.40
2023-03-28T09:20:30.151Z,1.17
2023-03-28T09:23:27.331Z,1.73
2023-03-28T09:26:39.781Z,1.25
2023-03-28T09:29:20.125Z,1.92
2023-03-28T09:31:50.866Z,1.42
2023-03-28T09:34:27.412Z,1.33
2023-03-28T09:37:17.623Z,1.33
2023-03-28T09:39:52.209Z,1.75
2023-03-28T09:42:52.817Z,3.17
2023-03-28T09:45:40.763Z,0.88
2023-03-28T09:48:30.115Z,1.30
2023-03-28T09:51:01.604Z,0.88
2023-03-28T09:53:36.880Z,0.75
2023-03-28T09:56:27.532Z,0.82
2023-03-28T09:59:03.237Z,0.93
2023-03-28T10:01:47.899Z,0.85
2023-03-28T10:04:37.626Z,1.00
2023-03-28T10:07:32.932Z,0.77
2023-03-28T10:10:24.808Z,0.32
2023-03-28T10:13:02.711Z,0.63
2023-03-28T10:15:39.782Z,0.82
2023-03-28T10:18:35.716Z,0.47
2023-03-28T10:24:04.328Z,0.55
2023-03-28T10:26:31.566Z,0.35
2023-03-28T10:29:04.725Z,0.63
2023-03-28T10:31:33.011Z,0.80
2023-03-28T10:34:28.957Z,0.63
2023-03-28T10:37:23.898Z,0.45
2023-03-28T10:40:32.807Z,0.40
2023-03-28T10:43:21.174Z,0.70
2023-03-28T10:46:21.072Z,1.33
2023-03-28T10:49:30.329Z,0.77
2023-03-28T10:52:19.661Z,0.32
2023-03-28T10:54:52.444Z,0.38
2023-03-28T10:58:02.704Z,0.15
2023-03-28T11:00:49.165Z,0.30
2023-03-28T11:03:48.888Z,0.28
2023-03-28T11:06:34.681Z,2.25
2023-03-28T11:09:36.760Z,0.88
2023-03-28T11:12:51.241Z,0.57
2023-03-28T11:15:48.251Z,0.52
2023-03-28T11:18:57.656Z,2.78
2023-03-28T11:21:56.259Z,0.60
2023-03-28T11:24:30.764Z,1.83
2023-03-28T11:30:10.923Z,1.08
2023-03-28T11:33:02.665Z,7.65
2023-03-28T11:35:40.463Z,3.17
2023-03-28T11:38:16.459Z,1.73
2023-03-28T11:40:57.956Z,2.45
2023-03-28T11:43:57.595Z,1.02
2023-03-28T11:46:29.659Z,2.00
2023-03-28T11:49:21.658Z,1.77
2023-03-28T11:52:03.865Z,1.13
2023-03-28T11:54:45.704Z,1.70
2023-03-28T11:57:30.761Z,1.10
2023-03-28T12:00:36.409Z,1.25
2023-03-28T12:03:29.362Z,1.23
2023-03-28T12:06:16.397Z,1.75
2023-03-28T12:09:00.887Z,2.50
2023-03-28T12:11:53.687Z,1.85
2023-03-28T12:14:41.545Z,2.33
2023-03-28T12:17:28.333Z,1.55
2023-03-28T12:19:55.035Z,2.20
2023-03-28T12:22:32.627Z,2.38
2023-03-28T12:25:18.300Z,2.28
2023-03-28T12:28:20.489Z,2.07
2023-03-28T12:31:11.800Z,1.58
2023-03-28T12:34:03.621Z,1.30
2023-03-28T12:37:01.821Z,1.95
2023-03-28T12:40:13.445Z,3.60
2023-03-28T12:42:46.535Z,0.90
2023-03-28T12:45:23.533Z,2.38
2023-03-28T12:47:53.827Z,1.38
2023-03-28T12:50:28.305Z,1.70
2023-03-28T12:52:57.878Z,1.60
2023-03-28T12:55:51.486Z,1.85
2023-03-28T12:58:26.533Z,2.20
2023-03-28T13:01:08.126Z,1.20
2023-03-28T13:03:57.758Z,2.65
2023-03-28T13:07:01.043Z,2.65
2023-03-28T13:09:56.979Z,3.00
2023-03-28T13:12:54.501Z,2.72
2023-03-28T13:15:21.262Z,3.42
2023-03-28T13:18:09.369Z,4.05
2023-03-28T13:20:45.814Z,3.17
2023-03-28T13:23:15.489Z,2.03
2023-03-28T13:25:44.570Z,2.08
2023-03-28T13:28:11.282Z,3.63
2023-03-28T13:30:45.510Z,2.20
2023-03-28T13:33:25.539Z,2.83
2023-03-28T13:35:57.994Z,1.92
2023-03-28T13:38:27.934Z,2.80
2023-03-28T13:41:06.943Z,1.73
2023-03-28T13:43:50.920Z,3.40
2023-03-28T13:46:42.000Z,2.53
2023-03-28T13:49:17.552Z,2.72
2023-03-28T13:51:57.259Z,2.67
2023-03-28T13:54:28.112Z,3.33
2023-03-28T13:57:05.160Z,4.07
2023-03-28T13:59:37.993Z,2.60
2023-03-28T14:02:20.565Z,2.58
2023-03-28T14:04:55.967Z,3.05
2023-03-28T14:07:29.441Z,2.28
2023-03-28T14:09:57.356Z,2.55
2023-03-28T14:12:29.225Z,2.58
2023-03-28T14:15:00.825Z,1.85
2023-03-28T14:17:33.039Z,2.72
2023-03-28T14:20:02.465Z,2.78
2023-03-28T14:22:31.709Z,1.48
2023-03-28T14:25:01.397Z,2.05
2023-03-28T14:27:38.864Z,2.53
2023-03-28T14:30:19.821Z,1.52
2023-03-28T14:33:18.721Z,1.50
2023-03-28T14:35:57.063Z,1.98
2023-03-28T14:38:36.150Z,1.90
2023-03-28T14:41:08.744Z,2.00
2023-03-28T14:43:36.717Z,1.60
2023-03-28T14:46:08.032Z,2.53
2023-03-28T14:48:36.910Z,1.60
2023-03-28T14:51:05.743Z,1.58
2023-03-28T14:53:40.934Z,2.10
2023-03-28T14:56:11.365Z,1.88
2023-03-28T14:58:42.179Z,2.45
2023-03-28T15:01:13.290Z,1.92
2023-03-28T15:03:43.713Z,2.30
2023-03-28T15:06:20.089Z,2.22
2023-03-28T15:08:47.115Z,1.17
2023-03-28T15:11:26.208Z,1.38
2023-03-28T15:14:01.066Z,1.40
2023-03-28T15:16:28.834Z,2.28
2023-03-28T15:19:09.065Z,2.22
2023-03-28T15:21:37.962Z,2.25
2023-03-28T15:24:10.337Z,1.52
2023-03-28T15:26:41.952Z,1.02
2023-03-28T15:29:11.549Z,1.52
2023-03-28T15:31:39.610Z,2.72
2023-03-28T15:34:21.016Z,2.35
2023-03-28T15:36:58.337Z,1.88
2023-03-28T15:39:31.869Z,1.15
2023-03-28T15:42:24.219Z,1.75
2023-03-28T15:44:56.771Z,1.42
2023-03-28T15:47:30.062Z,1.80
2023-03-28T15:50:06.113Z,1.55
2023-03-28T15:52:34.401Z,1.60
2023-03-28T15:55:02.624Z,1.10
2023-03-28T15:57:31.305Z,2.45
2023-03-28T16:00:00.133Z,1.85
2023-03-28T16:02:26.817Z,2.97
2023-03-28T16:05:15.375Z,1.48
2023-03-28T16:07:46.067Z,1.88
2023-03-28T16:10:15.438Z,1.63
2023-03-28T16:13:02.993Z,1.55
2023-03-28T16:15:41.592Z,1.77
2023-03-28T16:18:28.843Z,2.10
2023-03-28T16:20:59.694Z,2.60
2023-03-28T16:23:27.215Z,2.83
2023-03-28T16:25:53.925Z,3.70
2023-03-28T16:28:20.645Z,1.50
2023-03-28T16:30:47.384Z,1.52
2023-03-28T16:33:14.198Z,1.83
2023-03-28T16:35:41.007Z,2.25
2023-03-28T16:38:07.866Z,1.15
2023-03-28T16:40:34.564Z,2.58
2023-03-28T16:43:01.336Z,1.65
2023-03-28T16:45:30.092Z,1.33
2023-03-28T16:47:57.280Z,1.90
2023-03-28T16:50:24.030Z,2.17
2023-03-28T16:52:50.765Z,1.90
2023-03-28T16:55:18.583Z,2.50
2023-03-28T16:57:45.664Z,1.65
2023-03-28T17:00:18.481Z,1.33
2023-03-28T17:02:46.890Z,2.22
2023-03-28T17:05:14.733Z,1.42
2023-03-28T17:07:41.502Z,1.85
2023-03-28T17:10:08.907Z,1.10
2023-03-28T17:12:36.094Z,1.20
2023-03-28T17:15:03.259Z,0.82
2023-03-28T17:17:29.991Z,1.70
2023-03-28T17:19:56.726Z,1.33
2023-03-28T17:22:23.460Z,2.38
2023-03-28T17:24:50.806Z,1.77
2023-03-28T17:27:17.554Z,1.65
2023-03-28T17:29:44.308Z,3.00
2023-03-28T17:32:11.569Z,2.95
2023-03-28T17:34:38.408Z,1.77
2023-03-28T17:37:05.334Z,2.83
2023-03-28T17:39:32.392Z,1.88
2023-03-28T17:41:59.060Z,1.55
2023-03-28T17:44:26.131Z,1.90
2023-03-28T17:46:54.339Z,2.25
2023-03-28T17:49:22.461Z,3.42
2023-03-28T17:51:50.113Z,1.15
2023-03-28T17:54:17.269Z,1.98
2023-03-28T17:56:44.527Z,1.83
2023-03-28T17:59:11.805Z,1.80
2023-03-28T18:01:38.600Z,2.00
2023-03-28T18:04:05.498Z,1.63
2023-03-28T18:06:54.826Z,1.83
2023-03-28T18:09:22.001Z,1.35
2023-03-28T18:11:48.683Z,1.33
2023-03-28T18:14:15.526Z,2.03
2023-03-28T18:16:44.668Z,2.83
2023-03-28T18:19:17.525Z,2.08
2023-03-28T18:21:45.706Z,2.25
2023-03-28T18:24:12.504Z,3.38
2023-03-28T18:26:39.559Z,2.00
2023-03-28T18:29:06.781Z,2.08
2023-03-28T18:31:34.618Z,2.78
2023-03-28T18:34:04.996Z,1.85
2023-03-28T18:36:33.541Z,2.35
2023-03-28T18:39:00.180Z,2.05
2023-03-28T18:41:27.313Z,2.28
2023-03-28T18:43:54.068Z,2.60
2023-03-28T18:46:20.832Z,2.92
2023-03-28T18:48:47.542Z,3.00
2023-03-28T18:51:14.171Z,3.17
2023-03-28T18:53:40.820Z,2.47
2023-03-28T18:56:08.479Z,3.95
2023-03-28T18:58:37.004Z,2.35
2023-03-28T19:01:04.272Z,3.00
2023-03-28T19:03:33.268Z,2.55
2023-03-28T19:06:02.233Z,3.60
2023-03-28T19:08:30.162Z,3.22
2023-03-28T19:10:59.077Z,2.88
2023-03-28T19:13:27.056Z,4.13
2023-03-28T19:16:05.425Z,3.53
2023-03-28T19:18:33.551Z,2.92
2023-03-28T19:21:01.166Z,3.55
2023-03-28T19:23:28.485Z,4.30
2023-03-28T19:25:55.451Z,4.03
2023-03-28T19:28:22.437Z,3.83
2023-03-28T19:30:55.970Z,4.63
2023-03-28T19:33:22.707Z,3.85
2023-03-28T19:35:49.431Z,3.80
2023-03-28T19:38:16.108Z,3.80
2023-03-28T19:40:43.485Z,5.50
2023-03-28T19:43:10.212Z,4.05
2023-03-28T19:45:39.480Z,4.28
2023-03-28T19:48:06.245Z,4.53
2023-03-28T19:50:36.618Z,4.88
2023-03-28T19:53:04.057Z,4.38
2023-03-28T19:55:30.847Z,3.63
2023-03-28T19:57:58.231Z,3.65
2023-03-28T20:00:25.463Z,4.75
2023-03-28T20:02:52.210Z,3.67
2023-03-28T20:05:19.296Z,4.47
2023-03-28T20:07:46.013Z,3.75
2023-03-28T20:10:12.729Z,3.60
2023-03-28T20:12:40.002Z,3.85
2023-03-28T20:15:08.945Z,3.80
2023-03-28T20:17:36.222Z,4.38
2023-03-28T20:20:04.851Z,4.53
2023-03-28T20:22:34.091Z,3.83
2023-03-28T20:25:01.306Z,5.00
2023-03-28T20:27:29.100Z,3.78
2023-03-28T20:29:55.871Z,3.67
2023-03-28T20:32:22.637Z,3.15
2023-03-28T20:34:49.385Z,3.42
2023-03-28T20:37:17.330Z,4.65
2023-03-28T20:39:47.164Z,3.30
2023-03-28T20:42:13.985Z,3.63
2023-03-28T20:44:41.095Z,3.35
2023-03-28T20:47:10.493Z,4.10
2023-03-28T20:49:38.292Z,3.63
2023-03-28T20:52:07.721Z,3.88
2023-03-28T20:54:34.983Z,3.67
2023-03-28T20:57:02.152Z,3.20
2023-03-28T20:59:29.212Z,13.23
2023-03-28T21:01:55.990Z,6.22
2023-03-28T21:04:22.973Z,10.02
2023-03-28T21:06:50.043Z,4.00
2023-03-28T21:09:17.964Z,4.82
2023-03-28T21:11:45.042Z,5.00
2023-03-28T21:14:13.547Z,4.95
2023-03-28T21:16:41.349Z,5.07
2023-03-28T21:19:08.602Z,3.13
2023-03-28T21:21:36.129Z,3.97
2023-03-28T21:24:04.377Z,4.88
2023-03-28T21:26:31.462Z,3.50
2023-03-28T21:28:58.657Z,5.35
2023-03-28T21:31:27.827Z,3.60
2023-03-28T21:33:57.209Z,3.35
2023-03-28T21:36:25.255Z,3.80
2023-03-28T21:38:51.989Z,4.63
2023-03-28T21:41:18.689Z,3.05
2023-03-28T21:43:45.448Z,2.88
2023-03-28T21:46:13.533Z,4.13
2023-03-28T21:48:41.996Z,5.50
2023-03-28T21:51:08.743Z,3.60
2023-03-28T21:53:37.737Z,5.03
2023-03-28T21:56:06.533Z,8.30
2023-03-28T21:58:33.754Z,4.47
2023-03-28T22:01:01.965Z,4.40
2023-03-28T22:03:29.407Z,4.13
2023-03-28T22:05:56.241Z,6.32
2023-03-28T22:08:23.317Z,5.00
2023-03-28T22:10:58.196Z,3.75
2023-03-28T22:13:25.477Z,4.90
2023-03-28T22:15:58.448Z,3.92
2023-03-28T22:18:25.820Z,3.15
2023-03-28T22:20:53.452Z,3.10
2023-03-28T22:23:21.639Z,3.20
2023-03-28T22:25:48.352Z,3.38
2023-03-28T22:28:15.183Z,2.72
2023-03-28T22:30:42.443Z,3.38
2023-03-28T22:33:10.985Z,4.40
2023-03-28T22:35:38.196Z,3.53
2023-03-28T22:38:05.196Z,3.45
2023-03-28T22:40:31.942Z,3.15
2023-03-28T22:42:59.161Z,2.78
2023-03-28T22:45:27.044Z,2.92
2023-03-28T22:47:58.066Z,3.60
2023-03-28T22:50:24.988Z,3.25
2023-03-28T22:52:52.600Z,2.60
2023-03-28T22:55:22.458Z,3.30
2023-03-28T22:57:53.011Z,2.85
2023-03-28T23:00:23.409Z,2.63
2023-03-28T23:02:51.959Z,2.42
2023-03-28T23:05:19.552Z,2.97
2023-03-28T23:07:46.539Z,2.35
2023-03-28T23:10:16.073Z,3.08
2023-03-28T23:12:43.677Z,3.10
2023-03-28T23:15:11.136Z,2.88
2023-03-28T23:17:38.322Z,2.80
2023-03-28T23:20:12.746Z,3.20
2023-03-28T23:22:41.454Z,2.72
2023-03-28T23:25:09.044Z,1.98
2023-03-28T23:27:36.125Z,1.83
2023-03-28T23:30:02.910Z,3.13
2023-03-28T23:32:29.621Z,2.25
2023-03-28T23:34:56.568Z,2.22
2023-03-28T23:37:27.501Z,2.65
2023-03-28T23:39:55.298Z,2.45
2023-03-28T23:42:23.281Z,1.65
2023-03-28T23:44:50.326Z,1.42
2023-03-28T23:47:18.036Z,1.67
2023-03-28T23:49:44.710Z,2.08
2023-03-28T23:52:12.989Z,1.90
2023-03-28T23:54:39.973Z,1.88
2023-03-28T23:57:07.584Z,1.58
2023-03-28T23:59:34.629Z,1.50
